createdAt,value
2024-02-13T00:00:28.681Z,12.57
2024-02-13T00:02:55.771Z,13.97
2024-02-13T00:05:22.806Z,11.00
2024-02-13T00:07:50.221Z,10.93
2024-02-13T00:10:17.662Z,12.63
2024-02-13T00:12:44.503Z,14.97
2024-02-13T00:15:19.721Z,13.87
2024-02-13T00:17:47.067Z,15.37
2024-02-13T00:20:15.402Z,16.43
2024-02-13T00:22:42.564Z,13.30
2024-02-13T00:25:10.525Z,11.43
2024-02-13T00:27:37.849Z,13.57
2024-02-13T00:30:05.853Z,12.73
2024-02-13T00:32:38.746Z,14.17
2024-02-13T00:35:10.156Z,13.17
2024-02-13T00:37:40.301Z,12.40
2024-02-13T00:40:11.312Z,13.77
2024-02-13T00:42:38.992Z,12.33
2024-02-13T00:45:08.487Z,16.93
2024-02-13T00:47:35.768Z,15.10
2024-02-13T00:50:03.534Z,16.63
2024-02-13T00:52:30.408Z,24.00
2024-02-13T00:54:58.692Z,21.67
2024-02-13T00:57:25.890Z,20.83
2024-02-13T00:59:53.534Z,21.43
2024-02-13T01:02:21.168Z,19.07
2024-02-13T01:04:49.189Z,23.30
2024-02-13T01:07:18.531Z,22.07
2024-02-13T01:09:45.720Z,22.33
2024-02-13T01:12:12.542Z,23.13
2024-02-13T01:14:39.963Z,21.17
2024-02-13T01:17:07.035Z,27.50
2024-02-13T01:19:34.127Z,25.50
2024-02-13T01:22:02.538Z,22.23
2024-02-13T01:24:30.351Z,25.83
2024-02-13T01:26:59.028Z,26.70
2024-02-13T01:29:26.275Z,24.43
2024-02-13T01:31:54.702Z,29.37
2024-02-13T01:34:21.582Z,29.77
2024-02-13T01:36:48.512Z,27.67
2024-02-13T01:39:15.385Z,27.23
2024-02-13T01:41:42.392Z,25.03
2024-02-13T01:44:09.940Z,25.77
2024-02-13T01:46:37.346Z,24.37
2024-02-13T01:49:05.185Z,26.80
2024-02-13T01:51:36.110Z,25.07
2024-02-13T01:54:05.824Z,22.13
2024-02-13T01:56:34.806Z,31.90
2024-02-13T01:59:04.895Z,26.77
2024-02-13T02:01:34.276Z,30.20
2024-02-13T02:04:05.031Z,27.60
2024-02-13T02:06:32.107Z,28.57
2024-02-13T02:08:59.410Z,30.80
2024-02-13T02:11:26.771Z,27.57
2024-02-13T02:13:54.033Z,27.20
2024-02-13T02:16:21.016Z,28.70
2024-02-13T02:18:47.978Z,25.57
2024-02-13T02:21:15.706Z,28.93
2024-02-13T02:23:42.659Z,26.77
2024-02-13T02:26:09.670Z,29.80
2024-02-13T02:28:36.585Z,26.87
2024-02-13T02:31:03.731Z,28.10
2024-02-13T02:33:30.948Z,31.50
2024-02-13T02:35:57.991Z,27.37
2024-02-13T02:38:24.945Z,32.47
2024-02-13T02:40:51.810Z,29.63
2024-02-13T02:43:18.645Z,29.43
2024-02-13T02:45:46.665Z,33.53
2024-02-13T02:48:15.745Z,31.03
2024-02-13T02:50:43.370Z,27.70
2024-02-13T02:53:10.368Z,27.73
2024-02-13T02:55:37.251Z,28.93
2024-02-13T02:58:04.228Z,29.60
2024-02-13T03:00:31.303Z,29.40
2024-02-13T03:02:58.449Z,29.97
2024-02-13T03:05:28.236Z,30.03
2024-02-13T03:07:55.877Z,26.87
2024-02-13T03:10:22.719Z,28.53
2024-02-13T03:12:49.571Z,32.83
2024-02-13T03:15:16.474Z,33.23
2024-02-13T03:17:45.088Z,26.53
2024-02-13T03:20:14.022Z,25.23
2024-02-13T03:22:41.124Z,29.30
2024-02-13T03:25:08.602Z,31.40
2024-02-13T03:27:35.400Z,30.97
2024-02-13T03:30:03.402Z,28.63
2024-02-13T03:32:30.603Z,25.90
2024-02-13T03:34:57.716Z,27.37
2024-02-13T03:37:24.590Z,24.50
2024-02-13T03:39:51.442Z,28.60
2024-02-13T03:42:18.411Z,27.90
2024-02-13T03:44:46.902Z,27.77
2024-02-13T03:47:14.100Z,27.77
2024-02-13T03:49:42.186Z,29.37
2024-02-13T03:52:10.819Z,28.57
2024-02-13T03:54:38.260Z,29.53
2024-02-13T03:57:05.930Z,27.20
2024-02-13T03:59:32.880Z,28.43
2024-02-13T04:02:00.090Z,31.73
2024-02-13T04:04:26.992Z,29.30
2024-02-13T04:06:54.041Z,26.27
2024-02-13T04:09:21.146Z,28.20
2024-02-13T04:11:48.151Z,28.83
2024-02-13T04:14:15.278Z,27.67
2024-02-13T04:16:42.667Z,30.47
2024-02-13T04:19:10.046Z,23.40
2024-02-13T04:21:39.025Z,28.93
2024-02-13T04:24:08.202Z,27.33
2024-02-13T04:26:43.077Z,29.43
2024-02-13T04:29:10.459Z,26.90
2024-02-13T04:31:40.380Z,24.47
2024-02-13T04:34:08.144Z,25.60
2024-02-13T04:36:38.811Z,30.00
2024-02-13T04:39:08.227Z,28.53
2024-02-13T04:41:35.231Z,26.07
2024-02-13T04:44:03.643Z,24.00
2024-02-13T04:46:30.665Z,23.40
2024-02-13T04:48:58.592Z,28.70
2024-02-13T04:51:25.684Z,27.03
2024-02-13T04:53:52.949Z,27.13
2024-02-13T04:56:20.151Z,30.67
2024-02-13T04:58:47.896Z,24.97
2024-02-13T05:01:15.782Z,29.77
2024-02-13T05:04:03.287Z,23.10
2024-02-13T05:06:49.396Z,27.60
2024-02-13T05:09:16.623Z,25.83
2024-02-13T05:11:43.759Z,27.87
2024-02-13T05:14:10.744Z,25.47
2024-02-13T05:16:42.578Z,26.33
2024-02-13T05:19:09.877Z,24.93
2024-02-13T05:21:37.277Z,23.90
2024-02-13T05:24:07.394Z,25.80
2024-02-13T05:26:35.941Z,26.87
2024-02-13T05:29:04.728Z,29.03
2024-02-13T05:31:31.879Z,32.03
2024-02-13T05:33:58.893Z,35.77
2024-02-13T05:36:27.279Z,25.20
2024-02-13T05:38:54.554Z,25.97
2024-02-13T05:41:21.492Z,25.73
2024-02-13T05:43:48.778Z,29.43
2024-02-13T05:46:15.716Z,24.97
2024-02-13T05:48:43.694Z,26.50
2024-02-13T05:51:12.691Z,31.03
2024-02-13T05:53:43.452Z,29.53
2024-02-13T05:56:13.285Z,31.43
2024-02-13T05:58:40.734Z,24.27
2024-02-13T06:01:09.100Z,25.20
2024-02-13T06:03:36.142Z,28.10
2024-02-13T06:06:03.823Z,31.30
2024-02-13T06:08:30.907Z,25.27
2024-02-13T06:11:00.094Z,24.40
2024-02-13T06:13:28.084Z,26.10
2024-02-13T06:15:57.959Z,28.63
2024-02-13T06:18:25.238Z,29.40
2024-02-13T06:20:52.340Z,28.03
2024-02-13T06:23:19.425Z,24.77
2024-02-13T06:25:46.676Z,24.27
2024-02-13T06:28:14.269Z,22.00
2024-02-13T06:30:43.782Z,26.33
2024-02-13T06:33:11.866Z,22.97
2024-02-13T06:35:40.657Z,31.67
2024-02-13T06:38:07.630Z,28.27
2024-02-13T06:40:35.338Z,25.23
2024-02-13T06:43:04.562Z,26.17
2024-02-13T06:45:31.903Z,28.37
2024-02-13T06:47:58.935Z,24.27
2024-02-13T06:50:25.930Z,29.53
2024-02-13T06:52:53.719Z,28.23
2024-02-13T06:55:21.207Z,28.63
2024-02-13T06:57:48.448Z,26.57
2024-02-13T07:00:15.843Z,22.10
2024-02-13T07:02:42.971Z,27.60
2024-02-13T07:05:12.136Z,27.30
2024-02-13T07:07:46.574Z,25.10
2024-02-13T07:10:18.319Z,27.10
2024-02-13T07:12:45.720Z,29.07
2024-02-13T07:15:12.844Z,27.80
2024-02-13T07:20:12.991Z,27.70
2024-02-13T07:22:40.573Z,23.13
2024-02-13T07:25:10.117Z,24.87
2024-02-13T07:27:43.396Z,22.20
2024-02-13T07:30:12.745Z,22.87
2024-02-13T07:32:41.048Z,21.13
2024-02-13T07:35:08.638Z,17.37
2024-02-13T07:37:35.654Z,21.10
2024-02-13T07:40:03.999Z,24.13
2024-02-13T07:42:31.050Z,18.13
2024-02-13T07:44:59.417Z,21.73
2024-02-13T07:47:28.283Z,21.77
2024-02-13T07:49:56.448Z,21.27
2024-02-13T07:52:23.626Z,20.07
2024-02-13T07:54:52.180Z,21.93
2024-02-13T07:57:19.815Z,23.50
2024-02-13T07:59:48.256Z,22.27
2024-02-13T08:02:15.756Z,18.27
2024-02-13T08:04:43.549Z,15.30
2024-02-13T08:07:10.891Z,17.03
2024-02-13T08:09:38.851Z,12.17
2024-02-13T08:12:08.207Z,15.57
2024-02-13T08:14:36.612Z,10.67
2024-02-13T08:17:09.376Z,11.83
2024-02-13T08:19:37.747Z,16.33
2024-02-13T08:22:04.806Z,12.00
2024-02-13T08:24:32.211Z,13.13
2024-02-13T08:27:02.562Z,10.57
2024-02-13T08:29:31.439Z,21.40
2024-02-13T08:31:58.897Z,14.30
2024-02-13T08:34:26.641Z,14.33
2024-02-13T08:36:55.545Z,15.23
2024-02-13T08:39:23.419Z,11.30
2024-02-13T08:41:50.716Z,12.53
2024-02-13T08:44:20.087Z,14.40
2024-02-13T08:46:47.279Z,13.40
2024-02-13T08:49:14.917Z,13.50
2024-02-13T08:51:42.259Z,13.57
2024-02-13T08:54:13.121Z,13.23
2024-02-13T08:56:43.370Z,19.63
2024-02-13T08:59:10.360Z,11.43
2024-02-13T09:01:37.483Z,11.90
2024-02-13T09:04:04.639Z,12.73
2024-02-13T09:06:33.909Z,15.37
2024-02-13T09:09:03.178Z,11.07
2024-02-13T09:11:32.474Z,16.27
2024-02-13T09:13:59.519Z,12.93
2024-02-13T09:16:26.881Z,10.10
2024-02-13T09:18:56.521Z,14.30
2024-02-13T09:21:24.367Z,11.03
2024-02-13T09:23:51.494Z,13.63
2024-02-13T09:26:18.455Z,14.00
2024-02-13T09:28:46.251Z,10.10
2024-02-13T09:31:13.524Z,12.03
2024-02-13T09:33:41.029Z,14.23
2024-02-13T09:36:09.387Z,10.33
2024-02-13T09:38:39.998Z,14.07
2024-02-13T09:41:07.391Z,15.97
2024-02-13T09:43:34.612Z,10.83
2024-02-13T09:46:03.080Z,11.97
2024-02-13T09:48:33.992Z,11.67
2024-02-13T09:51:09.694Z,9.63
2024-02-13T09:53:44.068Z,9.27
2024-02-13T09:56:13.525Z,13.40
2024-02-13T09:58:48.480Z,10.03
2024-02-13T10:01:16.260Z,12.53
2024-02-13T10:03:45.041Z,14.53
2024-02-13T10:06:12.553Z,10.63
2024-02-13T10:08:41.236Z,14.43
2024-02-13T10:11:17.543Z,9.73
2024-02-13T10:13:47.492Z,10.67
2024-02-13T10:16:32.453Z,8.20
2024-02-13T10:19:02.504Z,10.37
2024-02-13T10:21:33.020Z,8.37
2024-02-13T10:24:15.155Z,11.50
2024-02-13T10:26:43.730Z,10.47
2024-02-13T10:29:11.397Z,10.23
2024-02-13T10:31:41.786Z,10.43
2024-02-13T10:34:12.729Z,10.63
2024-02-13T10:36:44.317Z,14.50
2024-02-13T10:39:13.912Z,10.27
2024-02-13T10:41:43.204Z,11.10
2024-02-13T10:44:13.409Z,11.33
2024-02-13T10:46:42.347Z,14.13
2024-02-13T10:49:25.208Z,8.93
2024-02-13T10:51:56.826Z,11.17
2024-02-13T10:54:27.629Z,16.60
2024-02-13T10:56:56.201Z,10.33
2024-02-13T10:59:24.154Z,8.97
2024-02-13T11:01:55.305Z,6.37
2024-02-13T11:04:22.607Z,11.47
2024-02-13T11:06:50.732Z,9.70
2024-02-13T11:09:19.247Z,11.57
2024-02-13T11:11:46.769Z,10.53
2024-02-13T11:14:24.050Z,6.57
2024-02-13T11:17:02.036Z,7.67
2024-02-13T11:19:47.327Z,13.00
2024-02-13T11:22:19.828Z,10.47
2024-02-13T11:24:54.425Z,10.03
2024-02-13T11:27:29.463Z,5.27
2024-02-13T11:30:00.199Z,9.00
2024-02-13T11:32:33.353Z,7.43
2024-02-13T11:35:00.997Z,10.50
2024-02-13T11:37:31.593Z,8.47
2024-02-13T11:39:59.520Z,12.40
2024-02-13T11:42:35.318Z,7.70
2024-02-13T11:45:03.440Z,11.60
2024-02-13T11:47:30.934Z,8.30
2024-02-13T11:49:58.127Z,9.47
2024-02-13T11:52:25.112Z,6.63
2024-02-13T11:54:52.688Z,8.80
2024-02-13T11:57:27.585Z,8.17
2024-02-13T12:00:01.697Z,6.77
2024-02-13T12:02:31.346Z,6.97
2024-02-13T12:04:58.190Z,6.97
2024-02-13T12:07:25.338Z,7.00
2024-02-13T12:09:54.107Z,7.63
2024-02-13T12:12:22.431Z,9.10
2024-02-13T12:14:53.861Z,7.97
2024-02-13T12:17:22.081Z,8.23
2024-02-13T12:19:49.608Z,9.80
2024-02-13T12:22:18.356Z,9.07
2024-02-13T12:24:47.564Z,4.90
2024-02-13T12:27:18.023Z,7.00
2024-02-13T12:29:45.497Z,6.77
2024-02-13T12:32:21.404Z,9.00
2024-02-13T12:34:50.171Z,6.30
2024-02-13T12:37:21.753Z,10.80
2024-02-13T12:39:49.011Z,5.80
2024-02-13T12:42:18.629Z,5.43
2024-02-13T12:44:46.241Z,5.93
2024-02-13T12:47:14.928Z,10.20
2024-02-13T12:49:47.712Z,9.43
2024-02-13T12:52:18.798Z,7.07
2024-02-13T12:54:47.319Z,13.57
2024-02-13T12:57:15.862Z,9.27
2024-02-13T12:59:47.278Z,8.93
2024-02-13T13:02:15.614Z,6.57
2024-02-13T13:04:43.011Z,7.93
2024-02-13T13:07:10.297Z,6.40
2024-02-13T13:09:38.951Z,7.37
2024-02-13T13:12:07.655Z,8.70
2024-02-13T13:14:35.920Z,4.87
2024-02-13T13:17:03.049Z,5.27
2024-02-13T13:19:32.938Z,6.63
2024-02-13T13:22:00.222Z,5.50
2024-02-13T13:24:28.514Z,7.73
2024-02-13T13:26:55.936Z,11.87
2024-02-13T13:29:23.471Z,5.53
2024-02-13T13:31:52.402Z,7.33
2024-02-13T13:34:24.438Z,7.37
2024-02-13T13:36:53.191Z,9.40
2024-02-13T13:39:22.079Z,4.27
2024-02-13T13:41:51.513Z,6.00
2024-02-13T13:44:19.284Z,7.30
2024-02-13T13:46:48.077Z,9.47
2024-02-13T13:49:19.048Z,7.47
2024-02-13T13:51:47.035Z,8.20
2024-02-13T13:54:13.930Z,8.13
2024-02-13T13:56:41.964Z,6.97
2024-02-13T13:59:08.931Z,8.20
2024-02-13T14:01:36.457Z,7.70
2024-02-13T14:04:04.346Z,4.20
2024-02-13T14:06:31.774Z,6.97
2024-02-13T14:08:58.745Z,8.67
2024-02-13T14:11:25.745Z,6.77
2024-02-13T14:13:53.677Z,5.77
2024-02-13T14:16:20.715Z,9.17
2024-02-13T14:18:48.430Z,4.07
2024-02-13T14:21:15.623Z,7.77
2024-02-13T14:23:43.993Z,4.83
2024-02-13T14:26:10.980Z,5.33
2024-02-13T14:28:38.189Z,7.90
2024-02-13T14:31:05.412Z,3.53
2024-02-13T14:33:33.607Z,4.40
2024-02-13T14:36:00.874Z,5.07
2024-02-13T14:38:27.921Z,2.73
2024-02-13T14:40:55.290Z,6.03
2024-02-13T14:43:22.240Z,6.97
2024-02-13T14:45:51.947Z,6.03
2024-02-13T14:48:19.176Z,2.70
2024-02-13T14:50:48.575Z,4.23
2024-02-13T14:53:21.968Z,6.97
2024-02-13T14:55:49.220Z,10.10
2024-02-13T14:58:25.837Z,5.50
2024-02-13T15:00:58.360Z,5.27
2024-02-13T15:03:25.843Z,5.40
2024-02-13T15:05:54.218Z,6.63
2024-02-13T15:08:21.875Z,5.87
2024-02-13T15:10:49.462Z,5.67
2024-02-13T15:13:17.198Z,5.30
2024-02-13T15:15:50.124Z,5.00
2024-02-13T15:18:17.459Z,2.93
2024-02-13T15:20:45.161Z,5.57
2024-02-13T15:23:13.961Z,2.17
2024-02-13T15:25:41.680Z,4.47
2024-02-13T15:28:08.875Z,5.07
2024-02-13T15:30:38.796Z,3.63
2024-02-13T15:33:06.664Z,4.23
2024-02-13T15:35:42.464Z,4.33
2024-02-13T15:38:28.421Z,5.87
2024-02-13T15:41:14.176Z,3.13
2024-02-13T15:43:59.480Z,5.33
2024-02-13T15:46:45.057Z,3.90
2024-02-13T15:49:15.948Z,5.80
2024-02-13T15:51:45.230Z,7.50
2024-02-13T15:54:12.313Z,6.23
2024-02-13T15:56:40.752Z,5.90
2024-02-13T15:59:10.748Z,3.37
2024-02-13T16:01:37.644Z,4.80
2024-02-13T16:04:05.517Z,1.90
2024-02-13T16:06:37.875Z,6.53
2024-02-13T16:09:05.456Z,4.93
2024-02-13T16:11:33.327Z,2.07
2024-02-13T16:14:03.535Z,6.00
2024-02-13T16:16:30.473Z,3.63
2024-02-13T16:18:58.057Z,5.17
2024-02-13T16:21:26.134Z,3.33
2024-02-13T16:23:53.117Z,2.50
2024-02-13T16:26:21.109Z,3.77
2024-02-13T16:28:48.398Z,4.50
2024-02-13T16:31:15.272Z,6.87
2024-02-13T16:33:43.192Z,7.63
2024-02-13T16:36:10.184Z,3.27
2024-02-13T16:38:37.079Z,7.80
2024-02-13T16:41:04.361Z,4.93
2024-02-13T16:43:31.345Z,6.13
2024-02-13T16:45:58.616Z,12.43
2024-02-13T16:48:25.933Z,13.77
2024-02-13T16:50:53.108Z,6.93
2024-02-13T16:53:20.367Z,6.97
2024-02-13T16:55:49.797Z,11.20
2024-02-13T16:58:16.879Z,9.17
2024-02-13T17:00:43.951Z,9.40
2024-02-13T17:03:10.870Z,9.57
2024-02-13T17:05:40.021Z,4.25
2024-02-13T17:08:07.986Z,4.87
2024-02-13T17:10:35.112Z,6.90
2024-02-13T17:13:04.518Z,5.77
2024-02-13T17:15:31.506Z,5.73
2024-02-13T17:17:58.827Z,7.37
2024-02-13T17:20:26.013Z,6.83
2024-02-13T17:22:55.117Z,4.87
2024-02-13T17:25:22.081Z,4.10
2024-02-13T17:27:49.280Z,6.73
2024-02-13T17:30:16.741Z,6.93
2024-02-13T17:32:45.621Z,9.57
2024-02-13T17:35:12.992Z,5.57
2024-02-13T17:37:40.136Z,6.43
2024-02-13T17:40:09.569Z,6.37
2024-02-13T17:42:36.417Z,4.30
2024-02-13T17:45:06.077Z,6.30
2024-02-13T17:47:33.521Z,9.73
2024-02-13T17:50:00.737Z,11.83
2024-02-13T17:52:27.698Z,7.70
2024-02-13T17:54:54.501Z,8.53
2024-02-13T17:57:21.802Z,10.87
2024-02-13T17:59:48.906Z,9.40
2024-02-13T18:02:15.804Z,10.37
2024-02-13T18:04:42.614Z,5.40
2024-02-13T18:07:13.646Z,7.10
2024-02-13T18:09:41.567Z,5.77
2024-02-13T18:12:08.712Z,9.40
2024-02-13T18:14:38.512Z,8.00
2024-02-13T18:17:06.119Z,7.13
2024-02-13T18:19:33.324Z,7.30
2024-02-13T18:22:00.508Z,9.83
2024-02-13T18:24:27.447Z,10.17
2024-02-13T18:26:54.438Z,7.70
2024-02-13T18:29:21.357Z,10.03
2024-02-13T18:31:48.363Z,10.20
2024-02-13T18:34:16.951Z,6.20
2024-02-13T18:36:45.361Z,7.03
2024-02-13T18:39:14.284Z,8.53
2024-02-13T18:41:42.051Z,10.40
2024-02-13T18:44:09.078Z,8.10
2024-02-13T18:46:36.343Z,12.20
2024-02-13T18:49:04.325Z,7.53
2024-02-13T18:51:31.762Z,8.03
2024-02-13T18:53:58.732Z,12.50
2024-02-13T18:56:32.363Z,9.27
2024-02-13T18:59:00.339Z,8.83
2024-02-13T19:01:27.581Z,10.70
2024-02-13T19:03:55.235Z,9.17
2024-02-13T19:06:22.382Z,8.77
2024-02-13T19:08:49.361Z,8.67
2024-02-13T19:11:17.067Z,9.00
2024-02-13T19:13:45.438Z,13.27
2024-02-13T19:16:12.335Z,9.53
2024-02-13T19:18:40.232Z,7.27
2024-02-13T19:21:09.068Z,8.43
2024-02-13T19:23:36.297Z,8.57
2024-02-13T19:26:03.549Z,7.87
2024-02-13T19:28:30.478Z,6.80
2024-02-13T19:30:57.390Z,8.90
2024-02-13T19:33:25.058Z,9.33
2024-02-13T19:35:53.539Z,9.10
2024-02-13T19:38:21.096Z,12.80
2024-02-13T19:40:47.992Z,13.10
2024-02-13T19:43:14.883Z,8.13
2024-02-13T19:45:43.496Z,7.67
2024-02-13T19:48:10.807Z,7.63
2024-02-13T19:50:39.731Z,8.10
2024-02-13T19:53:08.052Z,8.23
2024-02-13T19:55:35.235Z,11.10
2024-02-13T19:58:03.287Z,10.03
2024-02-13T20:00:30.251Z,8.83
2024-02-13T20:02:57.278Z,11.33
2024-02-13T20:05:25.136Z,8.33
2024-02-13T20:07:52.228Z,9.93
2024-02-13T20:10:21.482Z,8.00
2024-02-13T20:12:49.121Z,5.90
2024-02-13T20:15:16.165Z,9.10
2024-02-13T20:17:45.063Z,9.47
2024-02-13T20:20:15.993Z,7.87
2024-02-13T20:22:48.435Z,8.07
2024-02-13T20:25:16.418Z,6.73
2024-02-13T20:27:47.175Z,4.90
2024-02-13T20:30:18.103Z,8.30
2024-02-13T20:32:46.238Z,6.63
2024-02-13T20:35:13.929Z,7.47
2024-02-13T20:37:41.639Z,5.87
2024-02-13T20:40:11.446Z,7.20
2024-02-13T20:42:46.507Z,6.10
2024-02-13T20:45:21.192Z,6.73
2024-02-13T20:47:53.050Z,6.30
2024-02-13T20:50:21.715Z,7.43
2024-02-13T20:52:48.713Z,7.13
2024-02-13T20:55:17.037Z,7.43
2024-02-13T20:57:44.658Z,8.00
2024-02-13T21:00:15.535Z,8.33
2024-02-13T21:02:43.545Z,8.77
2024-02-13T21:05:11.366Z,9.90
2024-02-13T21:07:38.443Z,9.13
2024-02-13T21:10:10.130Z,9.70
2024-02-13T21:12:37.363Z,6.77
2024-02-13T21:15:04.872Z,7.90
2024-02-13T21:17:40.812Z,7.97
2024-02-13T21:20:12.061Z,8.17
2024-02-13T21:22:57.998Z,8.70
2024-02-13T21:25:25.533Z,8.47
2024-02-13T21:27:52.520Z,5.63
2024-02-13T21:30:19.910Z,11.53
2024-02-13T21:32:48.155Z,11.43
2024-02-13T21:35:16.742Z,5.43
2024-02-13T21:37:44.292Z,6.17
2024-02-13T21:40:15.358Z,7.40
2024-02-13T21:42:42.765Z,6.83
2024-02-13T21:45:10.864Z,8.97
2024-02-13T21:47:42.800Z,6.50
2024-02-13T21:50:10.600Z,6.60
2024-02-13T21:52:38.170Z,7.40
2024-02-13T21:55:06.246Z,7.03
2024-02-13T21:57:33.352Z,6.17
2024-02-13T22:00:04.659Z,6.57
2024-02-13T22:02:32.351Z,9.33
2024-02-13T22:04:59.291Z,10.50
2024-02-13T22:07:26.422Z,11.00
2024-02-13T22:09:53.469Z,12.83
2024-02-13T22:12:20.327Z,15.80
2024-02-13T22:14:47.182Z,11.60
2024-02-13T22:17:14.171Z,11.40
2024-02-13T22:19:41.050Z,9.33
2024-02-13T22:22:07.954Z,6.77
2024-02-13T22:24:34.851Z,12.77
2024-02-13T22:27:01.816Z,9.20
2024-02-13T22:29:29.102Z,5.40
2024-02-13T22:31:55.944Z,8.03
2024-02-13T22:34:24.680Z,11.83
2024-02-13T22:36:53.635Z,9.87
2024-02-13T22:39:20.486Z,7.37
2024-02-13T22:41:47.367Z,6.80
2024-02-13T22:44:14.262Z,6.60
2024-02-13T22:46:41.956Z,6.87
2024-02-13T22:49:09.072Z,5.67
2024-02-13T22:51:36.008Z,7.17
2024-02-13T22:54:03.244Z,5.87
2024-02-13T22:56:30.513Z,7.90
2024-02-13T22:58:58.385Z,7.87
2024-02-13T23:01:25.549Z,7.33
2024-02-13T23:03:52.575Z,8.80
2024-02-13T23:06:20.418Z,6.27
2024-02-13T23:08:47.476Z,6.13
2024-02-13T23:11:14.388Z,6.23
2024-02-13T23:13:45.725Z,8.57
2024-02-13T23:16:16.259Z,7.50
2024-02-13T23:18:43.421Z,8.23
2024-02-13T23:21:10.860Z,9.70
2024-02-13T23:23:37.874Z,11.53
2024-02-13T23:26:05.869Z,7.83
2024-02-13T23:28:39.688Z,8.97
2024-02-13T23:31:18.553Z,7.10
2024-02-13T23:33:46.063Z,8.10
2024-02-13T23:36:13.468Z,5.87
2024-02-13T23:38:40.394Z,8.20
2024-02-13T23:41:07.235Z,7.43
2024-02-13T23:43:34.651Z,8.03
2024-02-13T23:46:01.736Z,15.00
2024-02-13T23:48:29.752Z,9.80
2024-02-13T23:50:57.442Z,11.60
2024-02-13T23:53:24.754Z,9.10
2024-02-13T23:55:51.684Z,10.87
2024-02-13T23:58:18.674Z,12.93
